Time;durP1;ratioP1;P1;durP2;ratioP2;P2;SDS_P1;SDS_P2;PMS_P1;PMS_P2;Temp;Humidity;BMP_temperature;BMP_pressure;BME280_temperature;BME280_humidity;BME280_pressure;Samples;Min_cycle;Max_cycle;Signal;HPM_P1;HPM_P2
2021/10/12 00:01:48;;;;;;;9.80;4.43;;;;;;;11.55;75.01;100843.03;4973368;28;20478;-64
2021/10/12 00:04:38;;;;;;;13.93;4.22;;;;;;;11.53;75.10;100832.63;4973850;28;20065;-64
2021/10/12 00:07:25;;;;;;;7.80;4.35;;;;;;;11.52;75.18;100827.41;4973485;28;20046;-64
2021/10/12 00:10:15;;;;;;;7.55;3.67;;;;;;;11.53;75.20;100829.13;4973416;28;20046;-64
2021/10/12 00:12:59;;;;;;;11.88;4.03;;;;;;;11.53;74.91;100834.31;4973154;28;20135;-64
2021/10/12 00:15:44;;;;;;;15.35;4.72;;;;;;;11.54;75.21;100830.88;4973902;28;20101;-64
2021/10/12 00:18:31;;;;;;;11.80;3.80;;;;;;;11.53;75.27;100806.66;4973483;28;20089;-64
2021/10/12 00:21:17;;;;;;;10.93;4.03;;;;;;;11.53;75.13;100818.75;4973601;28;20050;-64
2021/10/12 00:24:05;;;;;;;8.48;4.35;;;;;;;11.54;75.05;100808.41;4973828;28;20038;-64
2021/10/12 00:26:52;;;;;;;9.65;4.10;;;;;;;11.54;75.34;100802.31;4973151;28;20058;-64
2021/10/12 00:29:39;;;;;;;10.05;4.35;;;;;;;11.53;75.36;100814.44;4973019;28;20092;-64
2021/10/12 00:32:26;;;;;;;10.50;4.25;;;;;;;11.51;75.11;100816.13;4974299;28;20105;-64
2021/10/12 00:35:10;;;;;;;15.05;4.32;;;;;;;11.51;75.05;100797.09;4973093;28;20520;-64
2021/10/12 00:37:57;;;;;;;14.07;4.57;;;;;;;11.51;74.83;100789.28;4972907;28;20050;-64
2021/10/12 00:40:41;;;;;;;8.95;3.40;;;;;;;11.49;75.01;100781.44;4973310;28;20049;-64
2021/10/12 00:43:31;;;;;;;19.63;5.10;;;;;;;11.50;74.96;100783.22;4977171;28;20053;-64
2021/10/12 00:46:18;;;;;;;10.18;4.80;;;;;;;11.51;74.76;100784.09;4977808;28;20093;-64
2021/10/12 00:49:02;;;;;;;7.32;4.40;;;;;;;11.50;74.88;100782.34;4977421;28;20046;-63
2021/10/12 00:51:46;;;;;;;9.27;4.53;;;;;;;11.49;75.33;100789.25;4976212;28;20053;-64
2021/10/12 00:54:30;;;;;;;12.02;3.90;;;;;;;11.50;75.22;100790.13;4977282;28;20154;-64
2021/10/12 00:57:15;;;;;;;;;;;;;;;11.49;75.17;100788.38;4976645;28;20594;-64
2021/10/12 01:00:01;;;;;;;12.32;4.32;;;;;;;11.48;75.18;100777.09;4977698;28;20017;-63
2021/10/12 01:02:48;;;;;;;14.43;4.82;;;;;;;11.49;75.33;100789.25;4977220;28;20088;-64
2021/10/12 01:05:33;;;;;;;12.48;4.50;;;;;;;11.49;75.41;100791.84;4976076;28;20092;-64
2021/10/12 01:08:18;;;;;;;11.00;4.90;;;;;;;11.47;74.96;100783.13;4976944;28;20061;-63
2021/10/12 01:11:10;;;;;;;10.90;4.07;;;;;;;11.48;75.09;100777.09;4977409;28;20037;-64
2021/10/12 01:13:59;;;;;;;13.25;4.80;;;;;;;11.48;75.50;100773.66;4976923;28;20117;-64
2021/10/12 01:16:46;;;;;;;12.32;4.47;;;;;;;11.49;75.04;100780.59;4976379;28;20113;-64
2021/10/12 01:19:36;;;;;;;12.65;4.85;;;;;;;11.49;75.21;100772.81;4975970;28;20045;-64
2021/10/12 01:22:25;;;;;;;11.35;4.32;;;;;;;11.49;75.07;100776.25;4989407;28;20089;-64
2021/10/12 01:25:14;;;;;;;14.48;4.70;;;;;;;11.49;75.31;100767.63;4976069;28;20614;-62
2021/10/12 01:28:01;;;;;;;9.20;4.45;;;;;;;11.49;75.32;100757.22;4975621;28;20061;-62
2021/10/12 01:30:45;;;;;;;17.98;5.25;;;;;;;11.48;75.12;100756.34;4976227;28;20062;-62
2021/10/12 01:33:29;;;;;;;16.75;5.53;;;;;;;11.47;75.52;100754.56;4975946;28;20080;-63
2021/10/12 01:36:15;;;;;;;19.77;5.80;;;;;;;11.47;75.42;100753.72;4976076;28;20046;-63
2021/10/12 01:39:02;;;;;;;14.65;5.47;;;;;;;11.48;75.38;100753.75;4975428;28;20081;-62
2021/10/12 01:41:49;;;;;;;8.45;4.80;;;;;;;11.48;75.12;100758.94;4976496;28;20049;-62
2021/10/12 01:44:39;;;;;;;19.13;5.75;;;;;;;11.47;75.14;100749.38;4975898;28;20081;-63
2021/10/12 01:47:23;;;;;;;9.20;5.00;;;;;;;11.48;75.32;100748.53;4975699;28;20077;-62
2021/10/12 01:50:14;;;;;;;10.88;4.68;;;;;;;11.47;75.24;100743.34;4975594;28;20549;-63
2021/10/12 01:53:01;;;;;;;11.68;5.40;;;;;;;11.48;75.34;100732.97;4974935;28;20096;-63
2021/10/12 01:55:48;;;;;;;13.60;4.93;;;;;;;11.49;75.30;100728.69;4975130;28;20086;-63
2021/10/12 01:58:32;;;;;;;13.35;6.63;;;;;;;11.49;75.53;100729.53;4976623;28;20057;-62
2021/10/12 02:01:23;;;;;;;12.55;5.65;;;;;;;11.50;75.07;100735.63;4975904;28;20113;-63
2021/10/12 02:04:10;;;;;;;11.35;5.57;;;;;;;11.47;75.36;100719.97;4975388;28;20096;-62
2021/10/12 02:06:57;;;;;;;9.48;5.07;;;;;;;11.47;75.05;100720.84;4975330;28;20109;-62
2021/10/12 02:09:44;;;;;;;15.15;6.13;;;;;;;11.48;75.33;100721.72;4975062;28;20088;-63
2021/10/12 02:12:34;;;;;;;11.30;5.43;;;;;;;11.46;75.13;100721.66;4974816;28;20569;-62
2021/10/12 02:15:21;;;;;;;13.15;6.07;;;;;;;11.45;74.98;100725.09;4975647;28;20054;-62
2021/10/12 02:18:05;;;;;;;17.58;5.80;;;;;;;11.46;74.89;100729.47;4975255;28;20137;-62
2021/10/12 02:20:52;;;;;;;16.63;6.03;;;;;;;11.43;75.30;100726.81;4975376;28;20070;-62
2021/10/12 02:23:38;;;;;;;12.38;5.00;;;;;;;11.45;75.23;100729.44;4974532;28;20532;-62
2021/10/12 02:26:25;;;;;;;16.55;6.03;;;;;;;11.43;74.98;100729.41;4975379;28;20090;-63
2021/10/12 02:29:10;;;;;;;13.90;5.15;;;;;;;11.42;75.00;100717.28;4974989;28;20089;-62
2021/10/12 02:32:01;;;;;;;10.18;5.22;;;;;;;11.40;75.13;100714.63;4974616;28;20082;-63
2021/10/12 02:34:51;;;;;;;14.55;5.00;;;;;;;11.40;75.32;100713.75;4974217;28;20054;-62
2021/10/12 02:37:35;;;;;;;11.85;5.00;;;;;;;11.37;75.14;100706.75;4974806;28;20060;-62
2021/10/12 02:40:20;;;;;;;10.15;4.60;;;;;;;11.37;75.33;100711.09;4974382;28;20049;-62
2021/10/12 02:43:04;;;;;;;10.98;5.03;;;;;;;11.36;75.01;100705.03;4975397;28;20046;-62
2021/10/12 02:45:47;;;;;;;12.18;5.50;;;;;;;11.36;74.94;100698.94;4974964;28;20591;-62
2021/10/12 02:48:31;;;;;;;11.07;4.70;;;;;;;11.34;75.08;100698.03;4975316;28;20057;-62
2021/10/12 02:51:21;;;;;;;12.50;5.75;;;;;;;11.34;74.99;100688.56;4974128;28;20053;-62
2021/10/12 02:54:05;;;;;;;9.90;5.63;;;;;;;11.33;75.05;100691.09;4974043;28;20422;-62
2021/10/12 02:56:49;;;;;;;9.77;4.35;;;;;;;11.32;75.37;100674.66;4974497;28;20045;-62
2021/10/12 02:59:36;;;;;;;13.88;5.13;;;;;;;11.31;75.06;100683.28;4974114;28;20081;-62
2021/10/12 03:02:20;;;;;;;8.05;4.90;;;;;;;11.32;75.10;100679.84;4974981;28;20185;-64
2021/10/12 03:05:07;;;;;;;10.38;5.05;;;;;;;11.32;75.21;100677.25;4974401;28;20050;-63
2021/10/12 03:07:50;;;;;;;8.70;4.97;;;;;;;11.31;75.15;100672.00;4974288;28;20626;-64
2021/10/12 03:10:37;;;;;;;10.70;4.80;;;;;;;11.30;75.23;100667.66;4975328;28;20557;-64
2021/10/12 03:13:24;;;;;;;12.30;4.97;;;;;;;11.30;75.23;100657.28;4974020;28;20057;-64
2021/10/12 03:16:13;;;;;;;9.32;4.10;;;;;;;11.29;75.11;100651.22;4974266;28;20101;-64
2021/10/12 03:19:03;;;;;;;11.73;5.07;;;;;;;11.27;75.23;100630.44;4973488;28;20074;-64
2021/10/12 03:21:58;;;;;;;9.95;5.13;;;;;;;11.27;75.25;100629.56;4974685;28;20070;-64
2021/10/12 03:24:49;;;;;;;13.32;4.65;;;;;;;11.27;75.05;100637.34;4973394;28;20047;-64
2021/10/12 03:27:35;;;;;;;10.32;4.30;;;;;;;11.26;75.27;100635.59;4973828;28;20046;-63
2021/10/12 03:30:19;;;;;;;11.45;5.65;;;;;;;11.26;74.94;100639.06;4974666;28;20066;-64
2021/10/12 03:33:04;;;;;;;9.48;4.68;;;;;;;11.25;75.26;100642.50;4974818;28;20122;-64
2021/10/12 03:35:56;;;;;;;9.93;4.90;;;;;;;11.25;75.07;100644.22;4973566;28;20096;-64
2021/10/12 03:38:40;;;;;;;12.68;5.28;;;;;;;11.23;75.42;100641.59;4973817;28;20099;-64
2021/10/12 03:41:24;;;;;;;10.90;4.95;;;;;;;11.25;75.33;100645.09;4974134;28;20094;-64
2021/10/12 03:44:08;;;;;;;10.70;5.43;;;;;;;11.27;75.28;100637.34;4973534;28;20418;-63
2021/10/12 03:46:57;;;;;;;11.52;6.05;;;;;;;11.27;75.00;100647.72;4973646;28;20181;-64
2021/10/12 03:49:46;;;;;;;10.60;4.80;;;;;;;11.27;74.95;100638.22;4973613;28;20411;-63
2021/10/12 03:52:30;;;;;;;14.15;5.63;;;;;;;11.25;75.05;100634.72;4973506;28;20054;-64
2021/10/12 03:55:14;;;;;;;11.95;5.07;;;;;;;11.25;75.25;100639.03;4974302;28;20065;-64
2021/10/12 03:57:58;;;;;;;14.60;6.22;;;;;;;11.26;75.27;100645.97;4973726;28;20133;-63
2021/10/12 04:00:45;;;;;;;11.77;5.93;;;;;;;11.25;74.89;100642.50;4974542;28;20102;-64
2021/10/12 04:03:31;;;;;;;9.77;5.00;;;;;;;11.25;75.23;100636.41;4974489;28;20058;-64
2021/10/12 04:06:18;;;;;;;12.02;5.38;;;;;;;11.26;74.96;100635.59;4974154;28;20090;-64
2021/10/12 04:09:08;;;;;;;9.43;5.32;;;;;;;11.23;74.93;100623.44;4974461;28;20054;-64
2021/10/12 04:12:00;;;;;;;8.63;4.75;;;;;;;11.25;75.31;100620.84;4973815;28;20503;-64
2021/10/12 04:14:45;;;;;;;16.52;4.93;;;;;;;11.24;75.07;100620.00;4973440;28;20513;-64
2021/10/12 04:17:29;;;;;;;13.23;5.90;;;;;;;11.24;75.20;100612.22;4978203;28;20058;-63
2021/10/12 04:20:13;;;;;;;14.13;5.55;;;;;;;11.25;75.11;100620.84;4978122;28;20061;-64
2021/10/12 04:23:03;;;;;;;16.08;5.53;;;;;;;11.25;75.13;100621.75;4976989;28;20441;-64
2021/10/12 04:25:50;;;;;;;11.10;5.00;;;;;;;11.24;74.91;100609.63;4977849;28;20042;-64
2021/10/12 04:28:37;;;;;;;11.43;5.43;;;;;;;11.23;75.02;100605.25;4977283;28;20050;-64
2021/10/12 04:31:29;;;;;;;9.60;5.38;;;;;;;11.24;74.79;100617.41;4977843;28;20105;-64
2021/10/12 04:34:16;;;;;;;11.68;5.25;;;;;;;11.23;74.86;100604.38;4977204;28;20082;-64
2021/10/12 04:37:09;;;;;;;10.30;5.05;;;;;;;11.22;75.01;100611.28;4976868;28;20057;-64
2021/10/12 04:39:53;;;;;;;10.70;6.35;;;;;;;11.22;75.20;100611.28;4977086;28;20045;-64
2021/10/12 04:42:37;;;;;;;9.27;5.30;;;;;;;11.23;74.92;100609.56;4977875;28;20406;-64
2021/10/12 04:45:21;;;;;;;;;;;;;;;11.19;74.89;100610.34;4978076;28;20576;-63
2021/10/12 04:48:09;;;;;;;16.58;5.35;;;;;;;11.19;75.20;100594.78;4977671;28;19972;-64
2021/10/12 04:50:56;;;;;;;11.38;5.80;;;;;;;11.19;74.87;100603.44;4976539;28;20532;-64
2021/10/12 04:53:40;;;;;;;12.55;6.22;;;;;;;11.18;75.19;100587.84;4977752;28;20533;-64
2021/10/12 04:56:32;;;;;;;10.15;5.35;;;;;;;11.17;75.00;100592.16;4977573;28;20125;-64
2021/10/12 04:59:17;;;;;;;11.25;5.63;;;;;;;11.19;75.34;100589.59;4976668;28;20524;-64
2021/10/12 05:02:01;;;;;;;13.32;6.53;;;;;;;11.19;74.88;100590.47;4977256;28;20058;-64
2021/10/12 05:04:47;;;;;;;16.30;6.45;;;;;;;11.19;75.19;100587.00;4977029;28;20097;-63
2021/10/12 05:07:39;;;;;;;8.35;4.88;;;;;;;11.17;75.28;100584.34;4976105;28;20101;-64
2021/10/12 05:10:27;;;;;;;14.30;6.45;;;;;;;11.17;75.07;100575.72;4976852;28;20049;-64
2021/10/12 05:13:11;;;;;;;13.70;5.90;;;;;;;11.17;75.16;100573.13;4976853;28;20054;-63
2021/10/12 05:16:09;;;;;;;17.98;7.10;;;;;;;11.16;74.93;100568.78;4976461;28;20406;-64
2021/10/12 05:19:00;;;;;;;13.48;6.75;;;;;;;11.17;75.16;100568.78;4976628;28;20149;-63
2021/10/12 05:21:49;;;;;;;13.90;6.57;;;;;;;11.17;74.85;100565.34;4975902;28;20410;-64
2021/10/12 05:24:39;;;;;;;12.52;5.93;;;;;;;11.15;75.05;100552.31;4976242;28;20053;-64
2021/10/12 05:27:24;;;;;;;9.02;5.18;;;;;;;11.14;75.05;100560.06;4976026;28;20151;-64
2021/10/12 05:30:13;;;;;;;12.95;7.05;;;;;;;11.16;74.63;100558.41;4976978;28;20101;-63
2021/10/12 05:33:03;;;;;;;13.75;6.03;;;;;;;11.16;75.15;100564.44;4975567;28;20045;-64
2021/10/12 05:35:48;;;;;;;14.45;6.60;;;;;;;11.17;74.82;100562.75;4975800;28;20052;-64
2021/10/12 05:38:35;;;;;;;11.75;6.55;;;;;;;11.15;75.13;100554.91;4975886;28;20093;-64
2021/10/12 05:41:19;;;;;;;12.35;6.25;;;;;;;11.17;74.77;100552.38;4975885;28;20050;-64
2021/10/12 05:44:06;;;;;;;10.48;6.32;;;;;;;11.15;74.93;100557.50;4976510;28;20046;-64
2021/10/12 05:46:58;;;;;;;11.23;6.80;;;;;;;11.15;74.95;100556.66;4975363;28;20049;-64
2021/10/12 05:49:50;;;;;;;10.82;6.80;;;;;;;11.15;75.09;100547.13;4975235;28;20094;-64
2021/10/12 05:52:44;;;;;;;13.55;7.10;;;;;;;11.16;74.96;100548.03;4975431;28;20158;-64
2021/10/12 05:56:17;;;;;;;12.02;7.57;;;;;;;11.15;74.72;100549.72;4975005;28;20046;-64
2021/10/12 06:01:28;;;;;;;17.65;7.50;;;;;;;11.14;75.09;100547.09;4975823;28;20085;-63
2021/10/12 06:04:23;;;;;;;15.85;7.22;;;;;;;11.12;75.09;100541.91;4975682;28;20081;-64
2021/10/12 06:07:13;;;;;;;12.48;7.03;;;;;;;11.12;75.03;100537.56;4975500;28;20049;-64
2021/10/12 06:10:08;;;;;;;12.20;7.07;;;;;;;11.11;75.27;100530.63;4976243;28;20052;-64
2021/10/12 06:13:10;;;;;;;15.18;6.82;;;;;;;11.12;74.77;100526.34;4975310;28;20049;-64
2021/10/12 06:16:04;;;;;;;14.90;7.07;;;;;;;11.12;75.19;100534.13;4975236;28;20146;-64
2021/10/12 06:18:53;;;;;;;16.40;8.25;;;;;;;11.10;75.04;100528.88;4974756;28;20054;-64
2021/10/12 06:21:37;;;;;;;11.00;7.05;;;;;;;11.10;75.15;100534.06;4975099;28;20113;-64
2021/10/12 06:24:21;;;;;;;13.07;7.70;;;;;;;11.10;75.15;100528.88;4975088;28;20553;-64
2021/10/12 06:27:13;;;;;;;17.20;7.63;;;;;;;11.09;74.98;100526.25;4974770;28;20096;-64
2021/10/12 06:30:05;;;;;;;12.68;7.53;;;;;;;11.08;74.92;100527.97;4974944;28;20130;-64
2021/10/12 06:32:58;;;;;;;15.60;7.78;;;;;;;11.10;75.05;100528.00;4974461;28;20057;-64
2021/10/12 06:35:57;;;;;;;14.02;7.28;;;;;;;11.09;74.97;100519.34;4974388;28;20046;-64
2021/10/12 06:38:49;;;;;;;14.55;7.90;;;;;;;11.07;75.08;100523.63;4974355;28;20437;-64
2021/10/12 06:41:44;;;;;;;13.63;6.35;;;;;;;11.09;75.26;100519.34;4974608;28;20142;-64
2021/10/12 06:44:42;;;;;;;12.98;7.40;;;;;;;11.10;75.24;100518.50;4974480;28;20117;-64
2021/10/12 06:47:34;;;;;;;16.25;7.55;;;;;;;11.09;75.08;100518.47;4974636;28;20409;-64
2021/10/12 06:50:21;;;;;;;17.85;6.97;;;;;;;11.08;74.78;100508.94;4975200;28;20141;-64
2021/10/12 06:53:05;;;;;;;15.57;7.10;;;;;;;11.08;75.02;100515.00;4973869;28;20053;-64
2021/10/12 06:55:48;;;;;;;13.60;7.43;;;;;;;11.09;74.86;100514.16;4975096;28;20532;-63
2021/10/12 06:58:50;;;;;;;13.35;6.57;;;;;;;11.10;75.13;100507.25;4975151;28;20105;-64
2021/10/12 07:01:46;;;;;;;15.85;7.32;;;;;;;11.11;74.99;100509.00;4973953;28;20141;-64
2021/10/12 07:04:38;;;;;;;14.05;6.82;;;;;;;11.12;74.93;100503.00;4974377;28;20065;-64
2021/10/12 07:07:29;;;;;;;15.38;7.40;;;;;;;11.11;74.95;100504.69;4974437;28;20054;-64
2021/10/12 07:10:27;;;;;;;12.18;6.70;;;;;;;11.11;75.01;100493.44;4974247;28;20598;-64
2021/10/12 07:13:29;;;;;;;15.60;7.28;;;;;;;11.10;75.14;100504.66;4973940;28;20486;-64
2021/10/12 07:16:20;;;;;;;13.15;7.00;;;;;;;11.09;74.74;100503.78;4974064;28;20454;-64
2021/10/12 07:19:07;;;;;;;14.43;7.80;;;;;;;11.11;75.30;100496.03;4974059;28;20101;-63
2021/10/12 07:21:53;;;;;;;13.25;7.80;;;;;;;11.10;74.96;100484.78;4974351;28;20054;-64
2021/10/12 07:24:48;;;;;;;16.52;7.30;;;;;;;11.10;74.84;100486.50;4975136;28;20054;-64
2021/10/12 07:27:36;;;;;;;13.32;7.05;;;;;;;11.08;75.15;100486.47;4973782;28;20061;-64
2021/10/12 07:30:32;;;;;;;20.77;8.13;;;;;;;11.09;74.90;100484.75;4973639;28;20057;-65
2021/10/12 07:33:21;;;;;;;16.85;7.25;;;;;;;11.09;75.02;100479.56;4973930;28;20053;-62
2021/10/12 07:36:17;;;;;;;13.00;8.23;;;;;;;11.09;74.95;100480.44;4974092;28;20053;-62
2021/10/12 07:39:15;;;;;;;13.88;7.38;;;;;;;11.11;75.14;100477.88;4973690;28;20061;-62
2021/10/12 07:42:11;;;;;;;15.85;8.02;;;;;;;11.10;74.95;100478.72;4974739;28;20054;-63
2021/10/12 07:45:08;;;;;;;19.17;8.13;;;;;;;11.10;75.03;100473.53;4973423;28;20131;-62
2021/10/12 07:47:53;;;;;;;19.23;7.40;;;;;;;11.11;75.00;100477.88;4973548;28;20064;-64
2021/10/12 07:50:37;;;;;;;13.48;8.20;;;;;;;11.12;74.75;100469.25;4976141;28;20174;-62
2021/10/12 07:53:32;;;;;;;;;;;;;;;11.09;75.22;100470.06;4978050;28;20140;-62
2021/10/12 07:56:37;;;;;;;16.70;8.15;;;;;;;11.10;74.85;100473.53;4978504;28;20453;-62
2021/10/12 07:59:29;;;;;;;20.38;9.30;;;;;;;11.13;75.29;100468.41;4977750;28;20069;-62
2021/10/12 08:02:30;;;;;;;17.10;8.90;;;;;;;11.14;75.27;100471.88;4977410;28;20062;-62
2021/10/12 08:05:32;;;;;;;14.23;8.32;;;;;;;11.15;75.39;100471.03;4977102;28;20126;-62
2021/10/12 08:08:19;;;;;;;14.60;8.20;;;;;;;11.15;74.94;100464.09;4977696;28;20129;-62
2021/10/12 08:11:12;;;;;;;17.55;9.00;;;;;;;11.17;75.13;100467.63;4977426;28;20053;-63
2021/10/12 08:14:03;;;;;;;17.17;8.50;;;;;;;11.17;75.37;100461.56;4976871;28;20146;-63
2021/10/12 08:17:02;;;;;;;15.70;8.07;;;;;;;11.20;75.15;100461.63;4978002;28;20050;-64
2021/10/12 08:19:55;;;;;;;13.07;7.63;;;;;;;11.21;75.17;100472.03;4977096;28;20109;-62
2021/10/12 08:22:54;;;;;;;14.60;8.50;;;;;;;11.20;75.36;100459.03;4976550;28;20086;-62
2021/10/12 08:25:49;;;;;;;19.83;9.07;;;;;;;11.23;75.00;100464.25;4978240;28;20053;-62
2021/10/12 08:28:41;;;;;;;18.80;8.18;;;;;;;11.21;75.51;100459.06;4977965;28;20069;-62
2021/10/12 08:31:36;;;;;;;14.82;8.10;;;;;;;11.22;75.16;100453.03;4977281;28;20066;-62
2021/10/12 08:34:31;;;;;;;18.48;8.60;;;;;;;11.25;75.61;100457.41;4976975;28;20097;-64
2021/10/12 08:37:18;;;;;;;12.80;7.75;;;;;;;11.25;75.51;100455.69;4976696;28;20058;-65
2021/10/12 08:40:04;;;;;;;17.33;7.93;;;;;;;11.25;75.44;100450.50;4976881;28;20043;-64
2021/10/12 08:42:51;;;;;;;21.23;9.05;;;;;;;11.26;75.65;100447.06;4976909;28;20102;-64
2021/10/12 08:45:47;;;;;;;16.83;9.32;;;;;;;11.29;75.38;100438.44;4977189;28;20056;-64
2021/10/12 08:48:48;;;;;;;19.50;8.13;;;;;;;11.29;75.33;100446.25;4977108;28;20054;-64
2021/10/12 08:51:46;;;;;;;17.30;8.20;;;;;;;11.30;75.50;100447.09;4977846;28;20042;-63
2021/10/12 08:54:48;;;;;;;16.67;8.27;;;;;;;11.31;75.58;100441.06;4976515;28;20077;-64
2021/10/12 08:57:44;;;;;;;18.83;10.15;;;;;;;11.32;75.96;100435.94;4976311;28;20049;-64
2021/10/12 09:00:39;;;;;;;15.27;8.60;;;;;;;11.31;75.73;100435.88;4977550;28;20449;-64
2021/10/12 09:06:57;;;;;;;13.80;8.40;;;;;;;11.33;75.57;100436.78;4977086;28;20045;-63
2021/10/12 09:09:50;;;;;;;14.25;8.75;;;;;;;11.32;75.99;100433.34;4977158;28;20594;-64
2021/10/12 09:12:58;;;;;;;19.02;9.70;;;;;;;11.32;75.69;100432.44;4975952;28;20414;-64
2021/10/12 09:16:05;;;;;;;17.35;8.55;;;;;;;11.33;75.92;100434.19;4976180;28;20092;-64
2021/10/12 09:18:55;;;;;;;13.77;8.68;;;;;;;11.33;75.64;100432.50;4975835;28;20081;-64
2021/10/12 09:21:44;;;;;;;15.48;8.73;;;;;;;11.35;75.69;100432.50;4975742;28;20053;-64
2021/10/12 09:24:36;;;;;;;18.63;9.70;;;;;;;11.35;75.65;100425.59;4975610;28;20553;-64
2021/10/12 09:27:29;;;;;;;20.27;9.32;;;;;;;11.36;76.19;100421.28;4975746;28;20513;-64
2021/10/12 09:30:27;;;;;;;16.92;8.10;;;;;;;11.36;75.93;100422.16;4976227;28;20093;-64
2021/10/12 09:33:20;;;;;;;17.90;8.88;;;;;;;11.38;75.96;100422.19;4976081;28;20170;-63
2021/10/12 09:36:28;;;;;;;21.48;9.85;;;;;;;11.37;75.84;100416.09;4976232;28;20102;-64
2021/10/12 09:39:37;;;;;;;15.60;8.05;;;;;;;11.36;76.03;100411.78;4976508;28;20094;-64
2021/10/12 09:42:22;;;;;;;18.73;8.60;;;;;;;11.38;76.09;100411.81;4976239;28;20102;-64
2021/10/12 09:45:06;;;;;;;16.85;8.85;;;;;;;11.38;76.08;100406.63;4976940;28;20057;-64
2021/10/12 09:48:01;;;;;;;15.02;8.85;;;;;;;11.39;76.07;100408.38;4976416;28;20181;-64
2021/10/12 09:51:10;;;;;;;17.23;9.52;;;;;;;11.40;76.05;100402.34;4976007;28;20055;-64
2021/10/12 09:54:03;;;;;;;20.48;7.95;;;;;;;11.40;76.08;100395.41;4976233;28;20073;-64
2021/10/12 09:56:58;;;;;;;17.63;8.23;;;;;;;11.41;76.61;100404.09;4976263;28;20112;-64
2021/10/12 09:59:53;;;;;;;11.50;7.53;;;;;;;11.41;76.37;100404.09;4975802;28;20049;-64
2021/10/12 10:02:43;;;;;;;18.23;8.23;;;;;;;11.42;76.53;100398.06;4974986;28;20057;-64
2021/10/12 10:05:28;;;;;;;14.60;7.65;;;;;;;11.41;76.57;100393.69;4976369;28;20109;-64
2021/10/12 10:08:12;;;;;;;15.30;8.00;;;;;;;11.41;76.17;100394.56;4976092;28;20109;-64
2021/10/12 10:11:03;;;;;;;;;;;;;;;11.40;76.63;100385.03;4976153;28;20054;-64
2021/10/12 10:13:47;;;;;;;13.48;6.90;;;;;;;11.42;76.72;100390.25;4974832;28;20026;-64
2021/10/12 10:16:31;;;;;;;;;;;;;;;11.41;76.34;100388.50;4976659;28;20061;-64
2021/10/12 10:19:20;;;;;;;17.52;8.45;;;;;;;11.40;76.23;100382.44;4975841;28;19941;-64
2021/10/12 10:22:04;;;;;;;18.17;8.50;;;;;;;11.40;76.57;100377.25;4975627;28;20109;-64
2021/10/12 10:24:49;;;;;;;14.85;7.18;;;;;;;11.41;76.77;100378.13;4975668;28;20572;-64
2021/10/12 10:27:34;;;;;;;;;;;;;;;11.41;76.65;100379.00;4975630;28;20054;-64
2021/10/12 10:30:30;;;;;;;10.10;7.03;;;;;;;11.41;76.93;100378.13;4975303;28;19970;-64
2021/10/12 10:33:35;;;;;;;15.77;6.82;;;;;;;11.42;76.56;100369.50;4974754;28;20101;-65
2021/10/12 10:36:26;;;;;;;16.08;8.02;;;;;;;11.43;76.58;100371.25;4975900;28;20058;-64
2021/10/12 10:39:36;;;;;;;15.15;8.05;;;;;;;11.43;76.80;100372.09;4961235;28;20057;-65
2021/10/12 10:42:26;;;;;;;22.15;8.20;;;;;;;11.43;76.41;100361.72;4974037;28;20053;-64
2021/10/12 10:45:11;;;;;;;16.90;7.85;;;;;;;11.42;76.53;100354.78;4975187;28;20045;-64
2021/10/12 10:48:03;;;;;;;17.40;8.25;;;;;;;11.43;76.62;100353.94;4974846;28;20457;-64
2021/10/12 10:50:53;;;;;;;12.07;6.72;;;;;;;11.45;76.65;100347.91;4974673;28;20108;-64
2021/10/12 10:53:40;;;;;;;11.75;6.57;;;;;;;11.45;76.95;100343.56;4974386;28;20101;-65
2021/10/12 10:56:24;;;;;;;20.63;7.80;;;;;;;11.45;76.53;100343.56;4974663;28;20502;-65
2021/10/12 10:59:20;;;;;;;17.95;8.43;;;;;;;11.46;76.74;100345.31;4975505;28;20050;-65
2021/10/12 11:02:25;;;;;;;13.00;6.03;;;;;;;11.45;76.82;100342.72;4974752;28;20054;-65
2021/10/12 11:05:09;;;;;;;13.73;7.10;;;;;;;11.46;77.09;100334.94;4973706;28;20058;-63
2021/10/12 11:08:06;;;;;;;12.15;6.75;;;;;;;11.46;76.83;100331.50;4975037;28;20089;-63
2021/10/12 11:10:56;;;;;;;12.68;6.65;;;;;;;11.46;76.91;100332.34;4974999;28;20124;-63
2021/10/12 11:13:43;;;;;;;15.70;8.18;;;;;;;11.46;76.80;100326.31;4974337;28;20084;-63
2021/10/12 11:16:34;;;;;;;18.65;8.07;;;;;;;11.47;77.37;100330.66;4973877;28;20103;-64
2021/10/12 11:19:24;;;;;;;14.10;7.88;;;;;;;11.48;77.01;100327.19;4973946;28;20054;-63
2021/10/12 11:22:08;;;;;;;16.02;8.10;;;;;;;11.48;77.29;100317.69;4974770;28;20153;-63
2021/10/12 11:24:53;;;;;;;17.17;7.10;;;;;;;11.48;77.36;100315.09;4973553;28;20050;-63
2021/10/12 11:27:44;;;;;;;16.13;7.35;;;;;;;11.49;77.27;100319.44;4974157;28;20042;-64
2021/10/12 11:30:36;;;;;;;14.68;7.45;;;;;;;11.49;77.36;100309.06;4974795;28;20046;-63
2021/10/12 11:33:36;;;;;;;11.50;7.05;;;;;;;11.49;77.05;100306.44;4973900;28;20446;-63
2021/10/12 11:36:25;;;;;;;13.73;6.97;;;;;;;11.50;77.19;100302.16;4973967;28;20105;-63
2021/10/12 11:39:10;;;;;;;10.02;5.97;;;;;;;11.51;77.55;100301.31;4973831;28;20042;-63
2021/10/12 11:42:03;;;;;;;12.95;7.00;;;;;;;11.50;77.19;100297.81;4974621;28;20505;-64
2021/10/12 11:44:54;;;;;;;13.38;7.32;;;;;;;11.50;77.38;100303.00;4973312;28;20046;-65
2021/10/12 11:47:44;;;;;;;26.40;8.18;;;;;;;11.51;77.49;100294.38;4973652;28;20053;-64
2021/10/12 11:50:35;;;;;;;18.15;7.95;;;;;;;11.52;77.46;100288.34;4973878;28;20053;-65
2021/10/12 11:53:30;;;;;;;12.60;7.13;;;;;;;11.51;77.48;100281.41;4973716;28;20195;-65
2021/10/12 11:56:20;;;;;;;19.42;7.50;;;;;;;11.51;77.47;100278.81;4973523;28;20089;-65
2021/10/12 11:59:13;;;;;;;12.77;6.10;;;;;;;11.52;77.08;100283.16;4973918;28;20182;-65
2021/10/12 12:02:01;;;;;;;15.82;6.40;;;;;;;11.53;77.50;100277.13;4973161;28;20117;-65
2021/10/12 12:04:44;;;;;;;11.57;6.85;;;;;;;11.53;77.45;100271.91;4973478;28;20050;-65
2021/10/12 12:07:31;;;;;;;14.43;7.70;;;;;;;11.54;77.38;100272.78;4974460;28;20054;-65
2021/10/12 12:10:18;;;;;;;13.68;7.35;;;;;;;11.55;77.23;100279.72;4973993;28;20053;-65
2021/10/12 12:13:14;;;;;;;11.75;6.85;;;;;;;11.54;77.36;100273.66;4973542;28;20410;-64
2021/10/12 12:16:09;;;;;;;15.82;7.40;;;;;;;11.55;77.46;100270.22;4974751;28;20529;-65
2021/10/12 12:19:22;;;;;;;15.60;6.53;;;;;;;11.55;77.70;100265.03;4973865;28;20065;-65
2021/10/12 12:22:28;;;;;;;16.05;6.68;;;;;;;11.55;77.53;100270.22;4974275;28;20085;-65
2021/10/12 12:25:20;;;;;;;12.98;6.53;;;;;;;11.55;77.74;100265.03;4974131;28;20414;-65
2021/10/12 12:28:04;;;;;;;16.17;6.78;;;;;;;11.57;77.38;100262.44;4973237;28;20074;-66
2021/10/12 12:30:48;;;;;;;14.80;7.32;;;;;;;11.57;77.53;100260.75;4974510;28;20162;-64
2021/10/12 12:33:41;;;;;;;16.75;7.13;;;;;;;11.57;77.43;100250.38;4974305;28;20058;-63
2021/10/12 12:36:36;;;;;;;12.07;5.82;;;;;;;11.58;77.87;100248.63;4974661;28;20045;-63
2021/10/12 12:39:31;;;;;;;8.82;6.35;;;;;;;11.58;77.87;100246.91;4978107;28;20093;-64
2021/10/12 12:42:35;;;;;;;14.23;6.63;;;;;;;11.57;77.93;100239.97;4976671;28;20058;-65
2021/10/12 12:45:23;;;;;;;18.40;6.75;;;;;;;11.57;78.12;100237.38;4976415;28;20173;-64
2021/10/12 12:48:08;;;;;;;11.13;6.55;;;;;;;11.57;77.46;100224.41;4976263;28;20105;-63
2021/10/12 12:51:00;;;;;;;12.10;6.20;;;;;;;11.58;77.82;100233.03;4977727;28;20086;-65
2021/10/12 12:53:49;;;;;;;13.75;6.68;;;;;;;11.57;77.75;100229.59;4977840;28;20057;-63
2021/10/12 12:56:37;;;;;;;10.45;6.20;;;;;;;11.57;77.69;100224.41;4976317;28;20101;-63
2021/10/12 12:59:22;;;;;;;14.13;5.82;;;;;;;11.59;77.71;100232.19;4976159;28;20054;-63
2021/10/12 13:02:20;;;;;;;13.95;5.55;;;;;;;11.59;77.71;100224.41;4976455;28;20149;-64
2021/10/12 13:05:05;;;;;;;12.70;6.20;;;;;;;11.59;77.69;100214.03;4976716;28;20458;-64
2021/10/12 13:07:56;;;;;;;11.95;6.22;;;;;;;11.59;77.95;100211.44;4976368;28;20081;-64
2021/10/12 13:10:41;;;;;;;12.38;6.90;;;;;;;11.60;78.11;100207.13;4976087;28;20101;-64